Time;durP1;ratioP1;P1;durP2;ratioP2;P2;SDS_P1;SDS_P2;PMS_P1;PMS_P2;Temp;Humidity;BMP_temperature;BMP_pressure;BME280_temperature;BME280_humidity;BME280_pressure;Samples;Min_cycle;Max_cycle;Signal;HPM_P1;HPM_P2
2022/10/22 00:00:36;;;;;;;0.00;0.00;;;14.40;99.90;;;;;;4996228;28;20517;-75
2022/10/22 00:03:02;;;;;;;0.00;0.00;;;14.40;99.90;;;;;;5013898;28;20022;-75
2022/10/22 00:05:27;;;;;;;0.00;0.00;;;14.40;99.90;;;;;;5013536;28;20141;-75
2022/10/22 00:07:53;;;;;;;0.00;0.00;;;14.30;99.90;;;;;;4996137;28;20038;-75
2022/10/22 00:10:19;;;;;;;0.00;0.00;;;14.40;99.90;;;;;;5013706;28;20038;-75
2022/10/22 00:12:45;;;;;;;0.00;0.00;;;14.50;99.90;;;;;;4996045;28;20029;-75
2022/10/22 00:15:10;;;;;;;0.00;0.00;;;14.60;99.90;;;;;;5013469;28;20026;-75
2022/10/22 00:17:36;;;;;;;0.00;0.00;;;14.70;99.90;;;;;;5013601;28;20084;-75
2022/10/22 00:20:04;;;;;;;0.10;0.10;;;14.60;99.90;;;;;;4996027;28;20026;-75
2022/10/22 00:22:29;;;;;;;0.22;0.22;;;14.50;99.90;;;;;;4995928;28;20096;-75
2022/10/22 00:24:55;;;;;;;0.03;0.03;;;14.40;99.90;;;;;;5013291;28;20026;-75
2022/10/22 00:27:21;;;;;;;0.00;0.00;;;14.30;99.90;;;;;;5013369;28;20022;-75
2022/10/22 00:29:47;;;;;;;0.00;0.00;;;14.30;99.90;;;;;;5013398;28;20021;-75
2022/10/22 00:32:12;;;;;;;0.00;0.00;;;14.30;99.90;;;;;;4995837;28;20030;-75
2022/10/22 00:34:38;;;;;;;0.65;0.45;;;14.40;99.90;;;;;;5013153;28;20446;-75
2022/10/22 00:37:04;;;;;;;0.00;0.00;;;14.30;99.90;;;;;;5013029;28;20026;-75
2022/10/22 00:39:30;;;;;;;0.00;0.00;;;14.30;99.90;;;;;;5013207;28;20025;-75
2022/10/22 00:41:57;;;;;;;0.00;0.00;;;14.30;99.90;;;;;;4995671;28;20057;-75
2022/10/22 00:45:00;;;;;;;0.00;0.00;;;14.50;99.90;;;;;;5012981;28;20018;-75
2022/10/22 00:47:41;;;;;;;0.00;0.00;;;14.70;99.90;;;;;;5012981;28;20018;-75
2022/10/22 00:50:13;;;;;;;0.00;0.00;;;14.80;99.90;;;;;;5012672;28;20505;-75
2022/10/22 00:52:39;;;;;;;0.00;0.00;;;14.90;99.90;;;;;;4995529;28;20101;-75
2022/10/22 00:55:05;;;;;;;0.05;0.05;;;14.90;99.90;;;;;;5012820;28;20021;-76
2022/10/22 00:57:33;;;;;;;0.00;0.00;;;14.80;99.90;;;;;;5012795;28;20025;-75
2022/10/22 00:59:59;;;;;;;0.00;0.00;;;14.70;99.90;;;;;;5012809;28;20036;-75
2022/10/22 01:02:26;;;;;;;0.00;0.00;;;14.70;99.90;;;;;;5012809;28;20073;-75
2022/10/22 01:07:26;;;;;;;0.00;0.00;;;14.50;99.90;;;;;;5050619;28;20136;-73
2022/10/22 01:10:25;;;;;;;0.22;0.22;;;14.60;99.90;;;;;;5051056;28;20540;-74
2022/10/22 01:13:12;;;;;;;0.30;0.20;;;14.50;99.90;;;;;;5052134;28;20021;-74
2022/10/22 01:15:44;;;;;;;0.00;0.00;;;14.40;99.90;;;;;;5051934;28;20017;-74
2022/10/22 01:18:23;;;;;;;0.00;0.00;;;14.30;99.90;;;;;;5051725;28;20282;-74
2022/10/22 01:21:26;;;;;;;0.00;0.00;;;14.40;99.90;;;;;;5052310;28;20039;-74
2022/10/22 01:24:05;;;;;;;0.00;0.00;;;14.40;99.90;;;;;;5034351;28;20120;-73
2022/10/22 01:26:48;;;;;;;0.00;0.00;;;14.50;99.90;;;;;;5034314;28;20021;-73
2022/10/22 01:29:34;;;;;;;0.00;0.00;;;14.30;99.90;;;;;;5052011;28;20598;-73
2022/10/22 01:32:06;;;;;;;0.00;0.00;;;14.30;99.90;;;;;;5034199;28;20029;-73
2022/10/22 01:34:33;;;;;;;0.00;0.00;;;14.30;99.90;;;;;;5034007;28;20029;-74
2022/10/22 01:37:00;;;;;;;0.00;0.00;;;14.40;99.90;;;;;;5050776;28;20024;-73
2022/10/22 01:39:28;;;;;;;0.00;0.00;;;14.30;99.90;;;;;;5034246;28;20052;-74
2022/10/22 01:41:55;;;;;;;0.00;0.00;;;14.30;99.90;;;;;;5051934;28;20380;-73
2022/10/22 01:44:27;;;;;;;1.95;0.57;;;14.40;99.90;;;;;;5051818;28;20017;-73
2022/10/22 01:47:13;;;;;;;;;;;14.30;99.90;;;;;;5052103;28;20028;-73
2022/10/22 01:49:44;;;;;;;0.13;0.13;;;14.30;99.90;;;;;;5041111;28;19950;-74
2022/10/22 01:52:44;;;;;;;0.13;0.13;;;14.30;99.90;;;;;;5051952;28;20034;-74
2022/10/22 01:55:31;;;;;;;0.00;0.00;;;14.30;99.90;;;;;;5033708;28;20287;-73
2022/10/22 01:58:23;;;;;;;0.00;0.00;;;14.20;99.90;;;;;;5034415;28;20025;-73
2022/10/22 02:00:58;;;;;;;;;;;14.10;99.90;;;;;;5052275;28;20028;-73
2022/10/22 02:03:34;;;;;;;0.43;0.20;;;13.90;99.90;;;;;;5053910;28;19943;-74
2022/10/22 02:06:04;;;;;;;0.00;0.00;;;13.90;99.90;;;;;;5037537;28;20086;-73
2022/10/22 02:08:34;;;;;;;0.00;0.00;;;13.80;99.90;;;;;;5036606;28;20056;-73
2022/10/22 02:11:01;;;;;;;0.00;0.00;;;14.00;99.90;;;;;;5037246;28;20108;-73
2022/10/22 02:13:35;;;;;;;0.00;0.00;;;13.90;99.90;;;;;;5055599;28;20029;-73
2022/10/22 02:16:05;;;;;;;0.00;0.00;;;13.90;99.90;;;;;;5036734;28;20029;-73
2022/10/22 02:18:34;;;;;;;0.00;0.00;;;14.00;99.90;;;;;;5020572;28;20033;-73
2022/10/22 02:21:00;;;;;;;0.00;0.00;;;14.10;99.90;;;;;;5037432;28;20163;-73
2022/10/22 02:23:27;;;;;;;0.00;0.00;;;14.00;99.90;;;;;;5037478;28;20022;-73
2022/10/22 02:26:08;;;;;;;0.00;0.00;;;13.90;99.90;;;;;;5055128;28;20048;-73
2022/10/22 02:28:55;;;;;;;0.00;0.00;;;13.90;99.90;;;;;;5037437;28;20021;-73
2022/10/22 02:31:26;;;;;;;0.00;0.00;;;13.90;99.90;;;;;;5055304;28;20053;-74
2022/10/22 02:33:55;;;;;;;0.00;0.00;;;13.90;99.90;;;;;;5036962;28;20033;-74
2022/10/22 02:36:22;;;;;;;0.10;0.10;;;14.00;99.90;;;;;;5036320;28;20524;-73
2022/10/22 02:38:50;;;;;;;0.00;0.00;;;13.90;99.90;;;;;;5053036;28;20048;-73
2022/10/22 02:41:17;;;;;;;0.00;0.00;;;13.80;99.90;;;;;;5054561;28;20362;-73
2022/10/22 02:43:47;;;;;;;0.47;0.15;;;13.80;99.90;;;;;;5036661;28;20477;-74
2022/10/22 02:46:13;;;;;;;2.90;0.22;;;13.80;99.90;;;;;;5054873;28;20017;-73
2022/10/22 02:48:39;;;;;;;0.00;0.00;;;13.70;99.90;;;;;;5037078;28;20120;-74
2022/10/22 02:51:05;;;;;;;0.00;0.00;;;13.80;99.90;;;;;;5037111;28;20492;-73
2022/10/22 02:53:32;;;;;;;0.10;0.05;;;13.80;99.90;;;;;;5054847;28;20021;-73
2022/10/22 02:55:58;;;;;;;0.00;0.00;;;13.80;99.90;;;;;;5037098;28;20025;-74
2022/10/22 02:58:24;;;;;;;0.13;0.05;;;13.80;99.90;;;;;;5055069;28;20025;-73
2022/10/22 03:00:49;;;;;;;0.00;0.00;;;13.80;99.90;;;;;;5055338;28;20020;-73
2022/10/22 03:03:15;;;;;;;0.00;0.00;;;13.80;99.90;;;;;;5055695;28;20447;-73
2022/10/22 03:05:41;;;;;;;0.00;0.00;;;13.80;99.90;;;;;;5037856;28;20029;-73
2022/10/22 03:08:07;;;;;;;0.00;0.00;;;13.90;99.90;;;;;;5039231;28;20163;-77
2022/10/22 03:10:32;;;;;;;0.00;0.00;;;13.90;99.90;;;;;;5056359;28;20080;-77
2022/10/22 03:12:58;;;;;;;0.10;0.00;;;13.80;99.90;;;;;;5036825;28;20381;-73
2022/10/22 03:15:24;;;;;;;0.25;0.08;;;13.70;99.90;;;;;;5054821;28;20032;-74
2022/10/22 03:17:49;;;;;;;0.00;0.00;;;13.70;99.90;;;;;;5036670;28;20028;-75
2022/10/22 03:20:15;;;;;;;0.00;0.00;;;13.70;99.90;;;;;;5054310;28;20092;-75
2022/10/22 03:22:42;;;;;;;0.25;0.00;;;13.60;99.90;;;;;;5036336;28;20029;-75
2022/10/22 03:25:13;;;;;;;0.00;0.00;;;13.60;99.90;;;;;;5053907;28;20646;-75
2022/10/22 03:27:40;;;;;;;0.10;0.10;;;13.60;99.90;;;;;;5036383;28;20021;-75
2022/10/22 03:30:07;;;;;;;0.38;0.20;;;13.50;99.90;;;;;;5054070;28;20021;-74
2022/10/22 03:32:33;;;;;;;0.00;0.00;;;13.50;99.90;;;;;;5054026;28;20419;-75
2022/10/22 03:34:59;;;;;;;0.10;0.10;;;13.30;99.90;;;;;;5035958;28;20033;-75
2022/10/22 03:37:26;;;;;;;0.00;0.00;;;13.30;99.90;;;;;;5053937;28;20040;-75
2022/10/22 03:39:53;;;;;;;0.00;0.00;;;13.30;99.90;;;;;;5035967;28;20021;-75
2022/10/22 03:42:20;;;;;;;0.00;0.00;;;13.30;99.90;;;;;;5053784;28;20488;-75
2022/10/22 03:44:46;;;;;;;0.10;0.10;;;13.20;99.90;;;;;;5054037;28;20463;-75
2022/10/22 03:47:13;;;;;;;0.10;0.10;;;13.20;99.90;;;;;;5053863;28;20020;-75
2022/10/22 03:49:38;;;;;;;0.00;0.00;;;13.20;99.90;;;;;;5019298;28;20032;-75
2022/10/22 03:52:08;;;;;;;0.00;0.00;;;13.20;99.90;;;;;;5053641;28;20029;-75
2022/10/22 03:54:35;;;;;;;0.00;0.00;;;13.30;99.90;;;;;;5053439;28;20404;-74
2022/10/22 03:57:01;;;;;;;0.00;0.00;;;13.20;99.90;;;;;;5035582;28;20149;-75
2022/10/22 03:59:27;;;;;;;0.00;0.00;;;13.30;99.90;;;;;;5035558;28;20532;-75
2022/10/22 04:01:53;;;;;;;0.00;0.00;;;13.20;99.90;;;;;;5035704;28;20048;-75
2022/10/22 04:04:19;;;;;;;0.00;0.00;;;13.30;99.90;;;;;;5053553;28;20028;-75
2022/10/22 04:06:45;;;;;;;0.00;0.00;;;13.30;99.90;;;;;;5053215;28;20033;-75
2022/10/22 04:09:11;;;;;;;0.03;0.03;;;13.20;99.90;;;;;;5053261;28;20071;-75
2022/10/22 04:11:36;;;;;;;0.00;0.00;;;13.20;99.90;;;;;;5053257;28;20067;-75
2022/10/22 04:14:02;;;;;;;0.00;0.00;;;13.20;99.90;;;;;;5053069;28;20516;-75
2022/10/22 04:16:30;;;;;;;3.67;0.28;;;13.20;99.90;;;;;;5035186;28;20031;-75
2022/10/22 04:18:56;;;;;;;0.00;0.00;;;13.20;99.90;;;;;;5053314;28;20017;-75
2022/10/22 04:21:22;;;;;;;0.00;0.00;;;13.10;99.90;;;;;;5053049;28;20113;-75
2022/10/22 04:23:51;;;;;;;0.00;0.00;;;13.10;99.90;;;;;;5052967;28;20058;-75
2022/10/22 04:26:18;;;;;;;0.00;0.00;;;13.00;99.90;;;;;;5052070;28;20045;-75
2022/10/22 04:28:46;;;;;;;0.10;0.10;;;13.00;99.90;;;;;;5052904;28;20029;-75
2022/10/22 04:31:15;;;;;;;0.00;0.00;;;12.90;99.90;;;;;;5052917;28;20021;-75
2022/10/22 04:33:41;;;;;;;0.00;0.00;;;12.80;99.90;;;;;;5052969;28;20033;-75
2022/10/22 04:36:15;;;;;;;0.03;0.03;;;12.80;99.90;;;;;;5034951;28;20056;-75
2022/10/22 04:38:43;;;;;;;0.00;0.00;;;12.70;99.90;;;;;;5034881;28;20037;-75
2022/10/22 04:41:10;;;;;;;0.00;0.00;;;12.70;99.90;;;;;;5052769;28;20427;-74
2022/10/22 04:43:36;;;;;;;0.00;0.00;;;12.80;99.90;;;;;;5052581;28;20025;-75
2022/10/22 04:46:01;;;;;;;0.00;0.00;;;12.90;99.90;;;;;;5052495;28;20024;-74
2022/10/22 04:48:27;;;;;;;0.17;0.17;;;13.00;99.90;;;;;;5052650;28;20036;-75
2022/10/22 04:50:53;;;;;;;0.00;0.00;;;12.90;99.90;;;;;;5034511;28;20029;-74
2022/10/22 04:53:18;;;;;;;0.00;0.00;;;12.90;99.90;;;;;;5052413;28;20384;-75
2022/10/22 04:55:44;;;;;;;0.00;0.00;;;12.90;99.90;;;;;;5052239;28;20024;-75
2022/10/22 04:58:10;;;;;;;0.00;0.00;;;12.90;99.90;;;;;;5052391;28;20100;-75
2022/10/22 05:00:36;;;;;;;0.00;0.00;;;13.00;99.90;;;;;;5052431;28;20412;-75
2022/10/22 05:03:01;;;;;;;0.08;0.08;;;13.10;99.90;;;;;;5052415;28;20083;-75
2022/10/22 05:05:27;;;;;;;0.03;0.03;;;12.90;99.90;;;;;;5052007;28;20029;-74
2022/10/22 05:07:53;;;;;;;0.20;0.20;;;12.90;99.90;;;;;;5034232;28;20104;-75
2022/10/22 05:10:18;;;;;;;0.00;0.00;;;12.70;99.90;;;;;;5052292;28;20052;-75
2022/10/22 05:12:44;;;;;;;0.00;0.00;;;12.70;99.90;;;;;;5034217;28;20139;-75
2022/10/22 05:15:10;;;;;;;0.00;0.00;;;12.60;99.90;;;;;;5034066;28;20079;-75
2022/10/22 05:17:36;;;;;;;0.00;0.00;;;12.50;99.90;;;;;;5052058;28;20033;-75
2022/10/22 05:20:03;;;;;;;0.08;0.08;;;12.60;99.90;;;;;;5052070;28;20020;-75
2022/10/22 05:22:29;;;;;;;0.00;0.00;;;12.60;99.90;;;;;;5051850;28;20096;-75
2022/10/22 05:24:54;;;;;;;0.10;0.10;;;12.80;99.90;;;;;;5051870;28;20108;-75
2022/10/22 05:27:20;;;;;;;0.00;0.00;;;12.70;99.90;;;;;;5051926;28;20124;-75
2022/10/22 05:29:46;;;;;;;0.00;0.00;;;12.80;99.90;;;;;;5034142;28;20417;-75
2022/10/22 05:32:12;;;;;;;0.10;0.10;;;12.80;99.90;;;;;;5051874;28;20025;-75
2022/10/22 05:34:37;;;;;;;0.10;0.10;;;12.70;99.90;;;;;;5051800;28;20361;-75
2022/10/22 05:37:03;;;;;;;0.10;0.10;;;12.80;99.90;;;;;;5051477;28;20032;-75
2022/10/22 05:39:29;;;;;;;0.00;0.00;;;12.80;99.90;;;;;;5033981;28;20120;-74
2022/10/22 05:41:55;;;;;;;0.00;0.00;;;12.90;99.90;;;;;;5051817;28;20106;-75
2022/10/22 05:44:20;;;;;;;0.00;0.00;;;13.00;99.90;;;;;;5033770;28;20024;-75
2022/10/22 05:46:46;;;;;;;0.05;0.05;;;13.00;99.90;;;;;;5033861;28;20021;-75
2022/10/22 05:49:14;;;;;;;0.00;0.00;;;13.00;99.90;;;;;;5033830;28;20033;-75
2022/10/22 05:51:40;;;;;;;0.00;0.00;;;13.00;99.90;;;;;;5051638;28;20028;-75
2022/10/22 05:54:07;;;;;;;0.00;0.00;;;13.10;99.90;;;;;;5034034;28;20021;-75
2022/10/22 05:56:34;;;;;;;0.00;0.00;;;13.20;99.90;;;;;;5033844;28;20025;-75
2022/10/22 05:59:00;;;;;;;0.10;0.10;;;13.20;99.90;;;;;;5051600;28;20025;-76
2022/10/22 06:01:28;;;;;;;0.00;0.00;;;13.30;99.90;;;;;;5051603;28;20029;-75
2022/10/22 06:03:56;;;;;;;0.08;0.08;;;13.40;99.90;;;;;;5033744;28;20055;-75
2022/10/22 06:06:38;;;;;;;0.00;0.00;;;13.50;99.90;;;;;;5051508;28;20029;-75
2022/10/22 06:09:09;;;;;;;0.10;0.10;;;13.60;99.90;;;;;;5033627;28;20035;-75
2022/10/22 06:11:35;;;;;;;0.00;0.00;;;13.50;99.90;;;;;;5051626;28;20560;-75
2022/10/22 06:14:02;;;;;;;0.10;0.10;;;13.50;99.90;;;;;;5051353;28;20052;-75
2022/10/22 06:16:29;;;;;;;0.00;0.00;;;13.50;99.90;;;;;;5051444;28;20067;-75
2022/10/22 06:18:55;;;;;;;0.00;0.00;;;13.50;99.90;;;;;;5051355;28;20503;-75
2022/10/22 06:21:20;;;;;;;0.00;0.00;;;13.40;99.90;;;;;;5033672;28;20025;-75
2022/10/22 06:23:46;;;;;;;0.20;0.20;;;13.30;99.90;;;;;;5033674;28;20520;-75
2022/10/22 06:26:12;;;;;;;0.00;0.00;;;13.10;99.90;;;;;;5051279;28;20047;-74
2022/10/22 06:28:38;;;;;;;0.13;0.10;;;12.90;99.90;;;;;;5033510;28;20025;-75
2022/10/22 06:31:04;;;;;;;0.10;0.10;;;12.80;99.90;;;;;;5033528;28;20025;-75
2022/10/22 06:33:33;;;;;;;0.00;0.00;;;12.70;99.90;;;;;;5034180;28;20091;-74
2022/10/22 06:36:06;;;;;;;0.00;0.00;;;12.70;99.90;;;;;;5059796;28;20532;-75
2022/10/22 06:38:32;;;;;;;0.00;0.00;;;12.60;99.90;;;;;;5064838;28;20032;-75
2022/10/22 06:41:05;;;;;;;0.65;0.28;;;12.70;99.90;;;;;;5071268;28;20020;-74
2022/10/22 06:43:31;;;;;;;0.00;0.00;;;12.60;99.90;;;;;;5052028;28;20049;-74
2022/10/22 06:46:02;;;;;;;0.00;0.00;;;12.60;99.90;;;;;;5050973;28;20028;-74
2022/10/22 06:48:28;;;;;;;0.10;0.10;;;12.50;99.90;;;;;;5033294;28;20116;-75
2022/10/22 06:50:54;;;;;;;0.10;0.10;;;12.50;99.90;;;;;;5053042;28;20160;-74
2022/10/22 06:53:20;;;;;;;0.17;0.17;;;12.60;99.90;;;;;;5053524;28;20029;-75
2022/10/22 06:55:45;;;;;;;0.00;0.00;;;12.70;99.90;;;;;;5054148;28;20032;-75
2022/10/22 06:58:11;;;;;;;0.10;0.10;;;12.70;99.90;;;;;;5034656;28;20067;-75
2022/10/22 07:00:37;;;;;;;0.00;0.00;;;12.70;99.90;;;;;;5054633;28;20101;-75
2022/10/22 07:03:02;;;;;;;0.28;0.28;;;12.70;99.90;;;;;;5054481;28;20438;-75
2022/10/22 07:05:28;;;;;;;0.00;0.00;;;12.70;99.90;;;;;;5054082;28;20028;-75
2022/10/22 07:07:54;;;;;;;0.03;0.03;;;12.80;99.90;;;;;;5067047;22;20458;-75
2022/10/22 07:10:20;;;;;;;0.17;0.17;;;12.80;99.90;;;;;;5061731;28;20036;-75
2022/10/22 07:12:45;;;;;;;0.03;0.03;;;12.80;99.90;;;;;;5058265;28;20387;-75
2022/10/22 07:15:11;;;;;;;0.57;0.40;;;12.90;99.90;;;;;;5052571;28;20020;-75
2022/10/22 07:17:37;;;;;;;0.10;0.10;;;12.90;99.90;;;;;;5037033;28;20029;-75
2022/10/22 07:20:03;;;;;;;0.00;0.00;;;12.80;99.90;;;;;;5036067;28;20025;-75
2022/10/22 07:22:29;;;;;;;0.05;0.05;;;12.80;99.90;;;;;;5036471;28;20025;-75
2022/10/22 07:24:55;;;;;;;0.00;0.00;;;13.00;99.90;;;;;;5036050;28;20104;-75
2022/10/22 07:27:20;;;;;;;0.00;0.00;;;13.10;99.90;;;;;;5036089;28;20033;-75
2022/10/22 07:29:46;;;;;;;0.03;0.03;;;13.10;99.90;;;;;;5054174;28;20028;-75
2022/10/22 07:32:12;;;;;;;0.00;0.00;;;13.10;99.90;;;;;;5054000;28;20028;-75
2022/10/22 07:34:38;;;;;;;0.00;0.00;;;13.10;99.90;;;;;;5053874;28;20029;-75
2022/10/22 07:37:04;;;;;;;0.00;0.00;;;13.20;99.90;;;;;;5053850;28;20385;-74
2022/10/22 07:39:32;;;;;;;0.00;0.00;;;13.20;99.90;;;;;;5058159;28;20059;-75
2022/10/22 07:41:58;;;;;;;0.00;0.00;;;13.10;99.90;;;;;;5016428;28;20022;-75
2022/10/22 07:44:24;;;;;;;0.00;0.00;;;13.10;99.90;;;;;;5033941;28;20032;-75
2022/10/22 07:46:50;;;;;;;0.20;0.20;;;13.10;99.90;;;;;;5054320;28;20025;-73
2022/10/22 07:49:15;;;;;;;0.95;0.30;;;13.00;99.90;;;;;;5073603;28;20034;-73
2022/10/22 07:51:41;;;;;;;0.28;0.28;;;12.90;99.90;;;;;;5073594;28;20037;-73
2022/10/22 07:54:07;;;;;;;0.00;0.00;;;12.80;99.90;;;;;;5039361;28;20048;-73
2022/10/22 07:56:33;;;;;;;0.35;0.35;;;12.80;99.90;;;;;;5052246;28;20475;-73
2022/10/22 07:58:59;;;;;;;0.10;0.10;;;12.70;99.90;;;;;;5073855;28;20561;-74
2022/10/22 08:01:24;;;;;;;0.88;0.10;;;12.70;99.90;;;;;;5052498;28;20107;-73
2022/10/22 08:03:50;;;;;;;0.20;0.20;;;12.80;99.90;;;;;;5062174;28;20412;-74
2022/10/22 08:06:16;;;;;;;0.45;0.10;;;12.80;99.90;;;;;;5017919;28;20028;-73
2022/10/22 08:08:44;;;;;;;0.00;0.00;;;12.80;99.90;;;;;;5034811;28;20041;-74
2022/10/22 08:11:10;;;;;;;0.00;0.00;;;12.80;99.90;;;;;;5017497;28;20484;-74
2022/10/22 08:13:37;;;;;;;0.10;0.10;;;12.90;99.90;;;;;;5069990;28;20025;-74
2022/10/22 08:16:02;;;;;;;0.00;0.00;;;13.00;99.90;;;;;;5072987;28;20159;-74
2022/10/22 08:18:29;;;;;;;0.00;0.00;;;13.10;99.90;;;;;;5054188;28;20423;-74
2022/10/22 08:20:55;;;;;;;0.00;0.00;;;13.10;99.90;;;;;;5072241;28;20373;-74
2022/10/22 08:23:20;;;;;;;0.38;0.10;;;13.10;99.90;;;;;;5055048;28;20027;-74
2022/10/22 08:25:46;;;;;;;1.27;0.20;;;13.10;99.90;;;;;;5038145;28;20052;-74
2022/10/22 08:28:12;;;;;;;0.00;0.00;;;13.10;99.90;;;;;;5038114;28;20044;-74
2022/10/22 08:30:39;;;;;;;0.00;0.00;;;13.10;99.90;;;;;;5038192;28;20020;-74
2022/10/22 08:33:05;;;;;;;0.38;0.25;;;13.20;99.90;;;;;;5054954;28;20392;-75
2022/10/22 08:35:31;;;;;;;0.10;0.10;;;13.20;99.90;;;;;;5072646;28;20017;-74
2022/10/22 08:37:56;;;;;;;0.10;0.10;;;13.20;99.90;;;;;;5072693;28;20027;-74
2022/10/22 08:40:37;;;;;;;0.95;0.30;;;13.20;99.90;;;;;;5054725;28;20032;-74
2022/10/22 08:43:40;;;;;;;0.10;0.03;;;13.20;99.90;;;;;;5054621;28;20055;-74
2022/10/22 08:46:28;;;;;;;0.00;0.00;;;13.20;99.90;;;;;;5054498;28;20028;-74
2022/10/22 08:48:57;;;;;;;0.10;0.10;;;13.20;99.90;;;;;;5038110;28;20377;-74
2022/10/22 08:51:31;;;;;;;0.00;0.00;;;13.30;99.90;;;;;;5054569;28;20052;-74
2022/10/22 08:54:00;;;;;;;0.35;0.35;;;13.30;99.90;;;;;;5037539;28;20029;-74
2022/10/22 08:56:26;;;;;;;0.85;0.20;;;13.40;99.90;;;;;;5054473;28;20396;-74
2022/10/22 08:58:54;;;;;;;0.00;0.00;;;13.40;99.90;;;;;;5072348;28;20024;-74
2022/10/22 09:01:30;;;;;;;0.00;0.00;;;13.40;99.90;;;;;;5054421;28;20387;-74
2022/10/22 09:04:12;;;;;;;0.15;0.15;;;13.40;99.90;;;;;;5072344;28;20024;-74
2022/10/22 09:06:40;;;;;;;0.00;0.00;;;13.50;99.90;;;;;;5072167;28;20025;-75
2022/10/22 09:09:14;;;;;;;0.00;0.00;;;13.50;99.90;;;;;;5054480;28;20125;-73
2022/10/22 09:11:43;;;;;;;0.00;0.00;;;13.50;99.90;;;;;;5053928;28;20452;-74
2022/10/22 09:14:20;;;;;;;0.10;0.10;;;13.70;99.90;;;;;;5054155;28;20036;-74
2022/10/22 09:16:54;;;;;;;0.00;0.00;;;13.90;99.90;;;;;;5055655;28;20066;-75
2022/10/22 09:20:14;;;;;;;0.05;0.05;;;14.00;99.90;;;;;;5072067;28;20032;-75
2022/10/22 09:23:22;;;;;;;0.10;0.10;;;14.00;99.90;;;;;;5028171;28;20239;-76
2022/10/22 09:25:50;;;;;;;0.10;0.10;;;14.20;99.90;;;;;;5017498;28;20106;-76
2022/10/22 09:28:16;;;;;;;0.00;0.00;;;14.20;99.90;;;;;;5054016;28;20028;-76
2022/10/22 09:30:42;;;;;;;0.03;0.03;;;14.10;99.90;;;;;;5072055;28;20025;-76
2022/10/22 09:33:24;;;;;;;0.00;0.00;;;14.00;99.90;;;;;;5071827;28;20472;-76
2022/10/22 09:36:02;;;;;;;0.57;0.08;;;14.10;99.90;;;;;;5054052;28;20024;-76
2022/10/22 09:38:31;;;;;;;0.00;0.00;;;14.20;99.90;;;;;;5054003;28;20021;-76
2022/10/22 09:40:59;;;;;;;0.10;0.10;;;14.20;99.90;;;;;;5072136;28;20048;-75
2022/10/22 09:43:25;;;;;;;0.00;0.00;;;14.20;99.90;;;;;;5054155;28;20029;-76
2022/10/22 09:46:01;;;;;;;4.68;0.60;;;14.00;99.90;;;;;;5071674;28;20142;-75
2022/10/22 09:48:33;;;;;;;0.10;0.10;;;14.00;99.90;;;;;;5053827;28;20024;-76
2022/10/22 09:51:16;;;;;;;0.20;0.20;;;14.10;99.90;;;;;;5053907;28;20597;-75
2022/10/22 09:53:45;;;;;;;0.03;0.03;;;14.10;99.90;;;;;;5071894;28;20020;-76
2022/10/22 09:56:47;;;;;;;0.00;0.00;;;14.20;99.90;;;;;;5053432;28;20498;-74
2022/10/22 09:59:18;;;;;;;0.00;0.00;;;14.20;99.90;;;;;;5052519;28;20376;-74
2022/10/22 10:01:44;;;;;;;0.10;0.10;;;14.30;99.90;;;;;;5071725;28;20472;-74
2022/10/22 10:04:13;;;;;;;0.08;0.08;;;14.10;99.90;;;;;;5071655;28;20032;-74
2022/10/22 10:06:41;;;;;;;0.03;0.03;;;14.10;99.90;;;;;;5071216;28;20025;-74
2022/10/22 10:09:19;;;;;;;0.00;0.00;;;14.20;99.90;;;;;;5071424;28;20042;-74
2022/10/22 10:11:59;;;;;;;0.08;0.08;;;14.30;99.90;;;;;;5071536;28;20067;-75
2022/10/22 10:14:29;;;;;;;0.10;0.10;;;14.50;99.90;;;;;;5071357;28;20035;-74
2022/10/22 10:17:23;;;;;;;0.30;0.30;;;14.50;99.90;;;;;;5071716;28;20016;-74
2022/10/22 10:20:21;;;;;;;0.08;0.08;;;14.60;99.90;;;;;;5071319;28;20488;-75
2022/10/22 10:22:54;;;;;;;0.22;0.22;;;14.70;99.90;;;;;;5053545;28;20044;-76
2022/10/22 10:25:38;;;;;;;2.13;1.05;;;14.80;99.90;;;;;;5075085;28;20029;-74
2022/10/22 10:28:22;;;;;;;0.10;0.10;;;14.70;99.90;;;;;;5075133;28;20025;-74
2022/10/22 10:31:11;;;;;;;1.55;1.45;;;14.80;99.90;;;;;;5075044;28;20035;-75
2022/10/22 10:34:13;;;;;;;0.00;0.00;;;15.00;99.90;;;;;;5057527;28;20028;-75
2022/10/22 10:37:10;;;;;;;0.00;0.00;;;15.20;99.90;;;;;;5056567;28;20029;-75
2022/10/22 10:39:50;;;;;;;0.00;0.00;;;15.30;99.90;;;;;;5074991;28;20056;-75
2022/10/22 10:42:28;;;;;;;0.08;0.08;;;15.60;99.90;;;;;;5074907;28;20027;-75
2022/10/22 10:45:06;;;;;;;0.10;0.10;;;16.20;99.90;;;;;;5056701;28;20077;-73
2022/10/22 10:47:41;;;;;;;0.20;0.20;;;16.60;99.90;;;;;;5057101;28;20025;-74
2022/10/22 10:50:25;;;;;;;0.00;0.00;;;17.20;99.90;;;;;;5057123;28;20024;-75
2022/10/22 10:53:09;;;;;;;0.10;0.10;;;18.10;99.90;;;;;;5056998;28;20059;-75
2022/10/22 10:56:06;;;;;;;0.10;0.10;;;19.00;99.90;;;;;;5056861;28;20380;-75
2022/10/22 10:58:40;;;;;;;0.77;0.77;;;19.80;99.90;;;;;;5074662;28;20108;-74
2022/10/22 11:01:31;;;;;;;0.10;0.10;;;20.40;99.90;;;;;;5056561;28;20489;-75
2022/10/22 11:03:59;;;;;;;0.00;0.00;;;20.20;99.90;;;;;;5056773;28;20028;-73
2022/10/22 11:06:29;;;;;;;0.10;0.10;;;21.20;99.90;;;;;;5056371;28;20028;-73
2022/10/22 11:09:13;;;;;;;0.05;0.05;;;21.70;99.90;;;;;;5074374;28;20025;-73
2022/10/22 11:11:52;;;;;;;0.17;0.17;;;21.80;99.90;;;;;;5039867;28;20031;-73
2022/10/22 11:14:40;;;;;;;0.00;0.00;;;21.90;99.90;;;;;;5074283;28;20430;-73
2022/10/22 11:17:16;;;;;;;0.15;0.15;;;22.40;99.90;;;;;;5074225;28;20029;-73
2022/10/22 11:19:49;;;;;;;0.00;0.00;;;22.40;99.90;;;;;;5074130;28;20029;-73
2022/10/22 11:22:31;;;;;;;0.15;0.15;;;23.00;99.90;;;;;;5074468;28;20469;-73
2022/10/22 11:25:02;;;;;;;0.00;0.00;;;23.40;97.80;;;;;;5056075;28;20026;-72
2022/10/22 11:27:52;;;;;;;0.10;0.10;;;22.90;95.60;;;;;;5056176;28;20033;-73
2022/10/22 11:30:20;;;;;;;0.57;0.57;;;23.50;96.20;;;;;;5056056;28;20051;-73
2022/10/22 11:33:00;;;;;;;0.17;0.17;;;24.00;94.00;;;;;;5039474;28;20025;-73
2022/10/22 11:35:32;;;;;;;0.32;0.32;;;23.80;92.10;;;;;;5039120;28;20047;-73
2022/10/22 11:37:58;;;;;;;;;;;22.90;92.20;;;;;;5056283;28;20066;-73
2022/10/22 11:40:42;;;;;;;0.00;0.00;;;23.20;92.60;;;;;;5073920;28;19904;-74
2022/10/22 11:43:10;;;;;;;0.00;0.00;;;23.80;91.50;;;;;;5055749;28;20037;-74
2022/10/22 11:45:39;;;;;;;0.00;0.00;;;24.10;90.80;;;;;;5038963;28;20070;-74
2022/10/22 11:48:16;;;;;;;0.00;0.00;;;23.70;90.20;;;;;;5055710;28;20033;-73
2022/10/22 11:50:47;;;;;;;0.00;0.00;;;23.10;91.60;;;;;;5073729;28;20039;-73
2022/10/22 11:53:13;;;;;;;0.22;0.22;;;22.90;93.10;;;;;;5055639;28;20066;-73
2022/10/22 11:55:44;;;;;;;0.03;0.03;;;22.30;92.90;;;;;;5073738;28;20372;-74
2022/10/22 11:58:28;;;;;;;0.00;0.00;;;21.60;92.90;;;;;;5039022;28;20027;-74
2022/10/22 12:00:56;;;;;;;0.00;0.00;;;21.90;94.00;;;;;;5073521;28;20081;-74
2022/10/22 12:03:31;;;;;;;0.00;0.00;;;21.70;93.30;;;;;;5055551;28;20024;-74
2022/10/22 12:06:12;;;;;;;0.00;0.00;;;21.30;93.80;;;;;;5055184;28;20029;-74
2022/10/22 12:08:45;;;;;;;0.00;0.00;;;21.00;93.90;;;;;;5055316;28;20036;-74
2022/10/22 12:11:11;;;;;;;0.15;0.13;;;21.40;94.80;;;;;;5073123;28;20124;-74
2022/10/22 12:14:01;;;;;;;0.00;0.00;;;21.60;93.60;;;;;;5055112;28;20111;-73
2022/10/22 12:16:48;;;;;;;0.10;0.10;;;22.50;93.80;;;;;;5073194;28;20055;-74
2022/10/22 12:19:29;;;;;;;0.32;0.20;;;22.80;91.30;;;;;;5024890;28;20036;-77
2022/10/22 12:22:09;;;;;;;0.00;0.00;;;23.00;91.20;;;;;;5055103;28;20034;-75
2022/10/22 12:24:43;;;;;;;0.00;0.00;;;23.40;90.60;;;;;;5073033;28;20025;-75
2022/10/22 12:27:17;;;;;;;0.00;0.00;;;23.40;90.20;;;;;;5072849;28;20017;-75
2022/10/22 12:29:42;;;;;;;0.10;0.10;;;23.50;87.70;;;;;;5072855;28;20043;-75
2022/10/22 12:32:13;;;;;;;0.00;0.00;;;23.70;90.00;;;;;;5072791;28;20032;-74
2022/10/22 12:34:46;;;;;;;0.28;0.20;;;24.10;85.80;;;;;;5072818;28;20416;-75
2022/10/22 12:37:14;;;;;;;0.00;0.00;;;24.20;87.70;;;;;;5054787;28;20454;-75
2022/10/22 12:39:39;;;;;;;0.38;0.20;;;24.10;85.20;;;;;;5054662;28;20035;-75
2022/10/22 12:42:10;;;;;;;0.00;0.00;;;23.30;87.50;;;;;;5072915;28;20025;-74
2022/10/22 12:44:35;;;;;;;0.00;0.00;;;23.70;88.60;;;;;;5054709;28;20054;-76
2022/10/22 12:47:01;;;;;;;0.00;0.00;;;24.30;86.20;;;;;;5054110;28;20016;-75
2022/10/22 12:49:36;;;;;;;0.00;0.00;;;24.80;83.90;;;;;;5072617;28;20052;-75
2022/10/22 12:52:06;;;;;;;0.00;0.00;;;24.00;84.90;;;;;;5072428;28;20077;-75
2022/10/22 12:54:33;;;;;;;0.00;0.00;;;23.90;84.30;;;;;;5054500;28;20122;-74
2022/10/22 12:56:59;;;;;;;0.20;0.20;;;23.50;86.50;;;;;;5054503;28;20032;-75
2022/10/22 12:59:27;;;;;;;0.10;0.10;;;22.80;89.00;;;;;;5054218;28;20036;-75
2022/10/22 13:01:53;;;;;;;0.85;0.20;;;22.50;90.00;;;;;;5037863;28;20493;-75
2022/10/22 13:04:25;;;;;;;0.00;0.00;;;21.90;90.80;;;;;;5072293;28;20021;-75
2022/10/22 13:07:11;;;;;;;0.08;0.08;;;21.60;91.70;;;;;;5037609;28;20060;-74
2022/10/22 13:09:38;;;;;;;0.20;0.20;;;21.30;93.00;;;;;;5027251;28;20044;-74